Time;durP1;ratioP1;P1;durP2;ratioP2;P2;SDS_P1;SDS_P2;PMS_P1;PMS_P2;Temp;Humidity;BMP_temperature;BMP_pressure;BME280_temperature;BME280_humidity;BME280_pressure;Samples;Min_cycle;Max_cycle;Signal;HPM_P1;HPM_P2
2021/11/04 00:00:08;;;;;;;1.23;0.68;;;;;;;;;;5069741;28;20564;-65
2021/11/04 00:02:36;;;;;;;1.38;0.63;;;;;;;;;;5068351;28;20131;-65
2021/11/04 00:05:05;;;;;;;1.23;0.70;;;;;;;;;;5070409;28;20036;-66
2021/11/04 00:07:34;;;;;;;3.03;1.00;;;;;;;;;;5062519;28;20091;-65
2021/11/04 00:10:02;;;;;;;1.40;0.73;;;;;;;;;;5069106;28;20484;-65
2021/11/04 00:12:30;;;;;;;1.42;0.80;;;;;;;;;;5067850;28;20146;-65
2021/11/04 00:15:00;;;;;;;1.13;0.70;;;;;;;;;;5070696;28;20118;-65
2021/11/04 00:17:28;;;;;;;2.53;1.10;;;;;;;;;;5069044;28;20124;-65
2021/11/04 00:19:56;;;;;;;1.52;0.90;;;;;;;;;;5069491;28;20087;-65
2021/11/04 00:22:25;;;;;;;2.78;1.05;;;;;;;;;;5067767;28;20128;-65
2021/11/04 00:24:53;;;;;;;2.40;1.08;;;;;;;;;;5070428;28;20134;-65
2021/11/04 00:27:21;;;;;;;1.80;0.77;;;;;;;;;;5064498;28;20084;-67
2021/11/04 00:29:49;;;;;;;3.75;1.20;;;;;;;;;;5058746;28;20049;-65
2021/11/04 00:32:19;;;;;;;4.50;1.45;;;;;;;;;;5062919;28;20144;-65
2021/11/04 00:34:47;;;;;;;4.53;1.33;;;;;;;;;;5067923;28;20064;-65
2021/11/04 00:37:16;;;;;;;4.53;1.77;;;;;;;;;;5064649;28;20123;-65
2021/11/04 00:39:44;;;;;;;4.53;1.58;;;;;;;;;;5067145;28;20456;-65
2021/11/04 00:42:12;;;;;;;2.33;1.02;;;;;;;;;;5063754;28;20100;-65
2021/11/04 00:44:41;;;;;;;4.07;1.33;;;;;;;;;;5061507;28;20610;-65
2021/11/04 00:47:09;;;;;;;5.05;1.20;;;;;;;;;;5064790;28;20131;-65
2021/11/04 00:49:38;;;;;;;5.60;1.20;;;;;;;;;;5070381;28;20472;-65
2021/11/04 00:52:07;;;;;;;1.27;1.00;;;;;;;;;;5073403;28;20091;-65
2021/11/04 00:54:35;;;;;;;2.30;0.88;;;;;;;;;;5072906;28;20473;-65
2021/11/04 00:57:04;;;;;;;2.80;0.85;;;;;;;;;;5068304;28;20562;-65
2021/11/04 00:59:32;;;;;;;0.80;0.60;;;;;;;;;;5065241;28;20264;-65
2021/11/04 01:02:00;;;;;;;1.50;0.80;;;;;;;;;;5072434;28;20044;-66
2021/11/04 01:04:28;;;;;;;2.95;0.88;;;;;;;;;;5072358;28;20048;-66
2021/11/04 01:06:58;;;;;;;0.90;0.57;;;;;;;;;;5072147;28;20127;-65
2021/11/04 01:09:26;;;;;;;2.47;0.75;;;;;;;;;;5072857;28;20049;-65
2021/11/04 01:11:55;;;;;;;1.60;0.90;;;;;;;;;;5070998;28;20051;-66
2021/11/04 01:14:23;;;;;;;1.10;0.70;;;;;;;;;;5071917;28;20135;-65
2021/11/04 01:16:52;;;;;;;1.80;0.85;;;;;;;;;;5064573;28;20124;-65
2021/11/04 01:19:20;;;;;;;1.70;0.70;;;;;;;;;;5063796;28;20099;-66
2021/11/04 01:21:48;;;;;;;2.10;0.82;;;;;;;;;;5070778;28;20510;-65
2021/11/04 01:24:18;;;;;;;0.82;0.68;;;;;;;;;;5072518;28;20147;-65
2021/11/04 01:26:46;;;;;;;0.90;0.70;;;;;;;;;;5073054;28;20114;-65
2021/11/04 01:29:34;;;;;;;1.70;0.60;;;;;;;;;;939938;28;10002985;-66
2021/11/04 01:32:02;;;;;;;1.42;0.80;;;;;;;;;;5062342;28;20318;-65
2021/11/04 01:34:30;;;;;;;1.55;0.95;;;;;;;;;;5064213;28;20140;-66
2021/11/04 01:36:59;;;;;;;1.30;0.63;;;;;;;;;;5068303;28;20047;-65
2021/11/04 01:39:28;;;;;;;0.63;0.60;;;;;;;;;;5072729;28;20143;-66
2021/11/04 01:41:56;;;;;;;5.03;0.85;;;;;;;;;;5072507;28;20131;-65
2021/11/04 01:44:25;;;;;;;2.55;0.70;;;;;;;;;;5064083;28;20076;-65
2021/11/04 01:46:53;;;;;;;0.88;0.80;;;;;;;;;;5066605;28;20036;-65
2021/11/04 01:49:21;;;;;;;0.95;0.70;;;;;;;;;;5064231;28;20128;-65
2021/11/04 01:51:50;;;;;;;0.70;0.50;;;;;;;;;;5071945;28;20494;-65
2021/11/04 01:54:18;;;;;;;0.82;0.68;;;;;;;;;;5052614;28;20053;-65
2021/11/04 01:56:48;;;;;;;0.50;0.35;;;;;;;;;;5065081;28;20059;-65
2021/11/04 01:59:16;;;;;;;1.33;0.75;;;;;;;;;;5072012;28;20048;-67
2021/11/04 02:01:45;;;;;;;1.27;0.60;;;;;;;;;;5068313;28;20087;-65
2021/11/04 02:04:17;;;;;;;1.95;0.68;;;;;;;;;;5062854;28;20041;-65
2021/11/04 02:06:49;;;;;;;0.70;0.57;;;;;;;;;;5071764;28;20135;-65
2021/11/04 02:09:21;;;;;;;1.17;0.50;;;;;;;;;;5072254;28;20051;-65
2021/11/04 02:11:51;;;;;;;1.15;0.70;;;;;;;;;;5058258;28;20052;-65
2021/11/04 02:14:23;;;;;;;0.73;0.57;;;;;;;;;;5070912;28;20051;-65
2021/11/04 02:16:53;;;;;;;1.10;0.65;;;;;;;;;;5072299;28;20053;-65
2021/11/04 02:19:26;;;;;;;1.23;0.60;;;;;;;;;;5071864;28;20056;-66
2021/11/04 02:21:57;;;;;;;1.08;0.73;;;;;;;;;;5072473;28;20131;-65
2021/11/04 02:24:29;;;;;;;1.67;0.60;;;;;;;;;;5070312;28;20135;-65
2021/11/04 02:27:00;;;;;;;0.85;0.50;;;;;;;;;;5070957;28;20140;-64
2021/11/04 02:29:29;;;;;;;0.60;0.52;;;;;;;;;;5069675;28;20050;-65
2021/11/04 02:31:57;;;;;;;1.52;0.98;;;;;;;;;;5071443;28;20584;-65
2021/11/04 02:34:28;;;;;;;1.35;0.77;;;;;;;;;;5070408;28;20476;-64
2021/11/04 02:36:57;;;;;;;0.90;0.73;;;;;;;;;;5070180;28;20483;-66
2021/11/04 02:39:27;;;;;;;1.38;0.85;;;;;;;;;;5062575;28;20048;-65
2021/11/04 02:41:55;;;;;;;1.77;1.20;;;;;;;;;;5071622;28;20045;-65
2021/11/04 02:44:26;;;;;;;1.17;0.80;;;;;;;;;;5065340;28;20131;-65
2021/11/04 02:46:56;;;;;;;1.42;1.20;;;;;;;;;;5062658;28;20127;-66
2021/11/04 02:49:25;;;;;;;1.17;1.05;;;;;;;;;;5063232;28;20038;-64
2021/11/04 02:51:53;;;;;;;1.50;0.70;;;;;;;;;;5062185;28;20128;-65
2021/11/04 02:54:22;;;;;;;1.35;0.80;;;;;;;;;;5061354;28;20060;-65
2021/11/04 02:56:52;;;;;;;0.60;0.50;;;;;;;;;;5067604;28;20048;-65
2021/11/04 02:59:21;;;;;;;0.73;0.50;;;;;;;;;;5056295;28;20062;-65
2021/11/04 03:01:53;;;;;;;2.40;0.43;;;;;;;;;;5065790;28;20049;-65
2021/11/04 03:04:21;;;;;;;0.40;0.40;;;;;;;;;;5064395;28;20123;-65
2021/11/04 03:06:50;;;;;;;1.05;0.60;;;;;;;;;;5066734;28;20048;-65
2021/11/04 03:09:19;;;;;;;0.85;0.45;;;;;;;;;;5069023;28;20044;-65
2021/11/04 03:11:48;;;;;;;0.93;0.50;;;;;;;;;;5066502;28;20040;-64
2021/11/04 03:14:16;;;;;;;0.50;0.50;;;;;;;;;;5065256;28;20064;-65
2021/11/04 03:16:46;;;;;;;0.93;0.43;;;;;;;;;;5065993;28;20135;-65
2021/11/04 03:19:16;;;;;;;0.40;0.40;;;;;;;;;;5068654;28;20044;-65
2021/11/04 03:21:47;;;;;;;0.63;0.40;;;;;;;;;;5067420;28;20055;-64
2021/11/04 03:24:18;;;;;;;1.38;0.60;;;;;;;;;;5067359;28;20393;-65
2021/11/04 03:26:47;;;;;;;1.13;0.65;;;;;;;;;;5070546;28;20168;-65
2021/11/04 03:29:16;;;;;;;1.17;0.60;;;;;;;;;;5068174;28;20054;-65
2021/11/04 03:31:45;;;;;;;0.93;0.57;;;;;;;;;;5068965;28;20045;-65
2021/11/04 03:34:15;;;;;;;1.23;0.52;;;;;;;;;;5066798;28;20095;-65
2021/11/04 03:36:46;;;;;;;0.43;0.43;;;;;;;;;;5059661;28;20091;-66
2021/11/04 03:39:15;;;;;;;0.77;0.60;;;;;;;;;;5066992;28;20048;-65
2021/11/04 03:41:43;;;;;;;0.73;0.68;;;;;;;;;;5063143;28;20036;-64
2021/11/04 03:44:12;;;;;;;0.80;0.47;;;;;;;;;;5056606;28;20493;-65
2021/11/04 03:46:43;;;;;;;0.88;0.73;;;;;;;;;;5060341;28;20043;-65
2021/11/04 03:49:12;;;;;;;0.63;0.50;;;;;;;;;;5054566;28;20139;-65
2021/11/04 03:51:42;;;;;;;0.65;0.50;;;;;;;;;;5059918;28;20053;-65
2021/11/04 03:54:11;;;;;;;0.63;0.52;;;;;;;;;;5066966;28;20318;-64
2021/11/04 03:56:40;;;;;;;0.57;0.50;;;;;;;;;;5062758;28;20041;-65
2021/11/04 03:59:08;;;;;;;1.25;0.70;;;;;;;;;;5067367;28;20078;-65
2021/11/04 04:01:37;;;;;;;0.90;0.50;;;;;;;;;;5069463;28;20123;-67
2021/11/04 04:04:05;;;;;;;0.68;0.50;;;;;;;;;;5066613;28;20045;-64
2021/11/04 04:06:34;;;;;;;0.50;0.50;;;;;;;;;;5070287;28;20048;-64
2021/11/04 04:09:05;;;;;;;0.47;0.43;;;;;;;;;;5053892;28;20059;-66
2021/11/04 04:11:34;;;;;;;0.75;0.60;;;;;;;;;;5065639;28;20056;-65
2021/11/04 04:14:02;;;;;;;0.47;0.40;;;;;;;;;;5064940;28;20041;-66
2021/11/04 04:16:30;;;;;;;0.95;0.60;;;;;;;;;;5062812;28;20127;-64
2021/11/04 04:18:58;;;;;;;0.60;0.60;;;;;;;;;;5061541;28;20041;-65
2021/11/04 04:21:26;;;;;;;0.85;0.57;;;;;;;;;;5069680;28;20049;-64
2021/11/04 04:23:55;;;;;;;1.30;0.60;;;;;;;;;;5063525;28;20404;-64
2021/11/04 04:26:24;;;;;;;0.77;0.50;;;;;;;;;;5072839;28;20407;-65
2021/11/04 04:28:53;;;;;;;0.60;0.50;;;;;;;;;;5070688;28;20041;-64
2021/11/04 04:31:21;;;;;;;0.50;0.50;;;;;;;;;;5070040;28;20522;-64
2021/11/04 04:33:49;;;;;;;1.17;0.77;;;;;;;;;;5068717;28;20139;-64
2021/11/04 04:36:17;;;;;;;0.93;0.70;;;;;;;;;;5064043;28;20664;-64
2021/11/04 04:38:45;;;;;;;0.60;0.52;;;;;;;;;;5062395;28;20047;-64
2021/11/04 04:41:14;;;;;;;3.03;0.45;;;;;;;;;;5070736;28;20385;-65
2021/11/04 04:43:43;;;;;;;2.88;0.60;;;;;;;;;;5060367;28;20139;-64
2021/11/04 04:46:12;;;;;;;0.57;0.50;;;;;;;;;;5062244;28;20485;-64
2021/11/04 04:48:41;;;;;;;0.70;0.50;;;;;;;;;;5073882;28;20127;-64
2021/11/04 04:51:09;;;;;;;0.68;0.60;;;;;;;;;;5071525;28;20127;-64
2021/11/04 04:53:37;;;;;;;0.60;0.50;;;;;;;;;;5067612;28;20478;-64
2021/11/04 04:56:05;;;;;;;1.00;0.85;;;;;;;;;;5073086;28;20154;-64
2021/11/04 04:58:35;;;;;;;0.90;0.60;;;;;;;;;;5069946;28;20044;-64
2021/11/04 05:01:04;;;;;;;0.93;0.60;;;;;;;;;;5070191;28;20036;-64
2021/11/04 05:03:37;;;;;;;1.45;0.57;;;;;;;;;;5076925;28;20124;-64
2021/11/04 05:06:06;;;;;;;1.45;0.82;;;;;;;;;;5072379;28;20474;-64
2021/11/04 05:08:34;;;;;;;1.50;0.90;;;;;;;;;;5067659;28;20091;-65
2021/11/04 05:11:02;;;;;;;2.13;0.90;;;;;;;;;;5066715;28;20433;-64
2021/11/04 05:13:31;;;;;;;0.73;0.63;;;;;;;;;;5071021;28;20052;-65
2021/11/04 05:15:59;;;;;;;1.20;0.75;;;;;;;;;;5072949;28;20060;-65
2021/11/04 05:18:29;;;;;;;1.20;0.90;;;;;;;;;;5063368;28;20729;-65
2021/11/04 05:20:57;;;;;;;1.13;0.90;;;;;;;;;;5072189;28;20044;-64
2021/11/04 05:23:25;;;;;;;1.88;1.13;;;;;;;;;;5068522;28;20135;-65
2021/11/04 05:25:54;;;;;;;0.75;0.70;;;;;;;;;;5068644;28;20144;-64
2021/11/04 05:28:22;;;;;;;1.10;0.70;;;;;;;;;;5058963;28;20127;-65
2021/11/04 05:30:50;;;;;;;1.17;0.68;;;;;;;;;;5071601;28;20055;-64
2021/11/04 05:33:18;;;;;;;1.13;0.80;;;;;;;;;;5063805;28;20159;-64
2021/11/04 05:35:48;;;;;;;1.65;0.60;;;;;;;;;;5065287;28;20057;-68
2021/11/04 05:38:16;;;;;;;0.68;0.60;;;;;;;;;;5072890;28;20167;-65
2021/11/04 05:40:44;;;;;;;0.57;0.50;;;;;;;;;;5064153;28;20058;-65
2021/11/04 05:43:12;;;;;;;0.55;0.50;;;;;;;;;;5067087;28;20044;-64
2021/11/04 05:45:41;;;;;;;2.72;0.60;;;;;;;;;;5072329;28;20045;-65
2021/11/04 05:48:09;;;;;;;0.98;0.60;;;;;;;;;;5064168;28;20131;-64
2021/11/04 05:50:37;;;;;;;0.50;0.50;;;;;;;;;;5072409;28;20044;-64
2021/11/04 05:53:07;;;;;;;0.90;0.57;;;;;;;;;;5071403;28;20041;-65
2021/11/04 05:55:35;;;;;;;0.80;0.45;;;;;;;;;;5072303;28;20082;-64
2021/11/04 05:58:03;;;;;;;0.90;0.43;;;;;;;;;;5072148;28;20055;-64
2021/11/04 06:00:32;;;;;;;0.35;0.30;;;;;;;;;;5071349;28;20468;-65
2021/11/04 06:03:00;;;;;;;1.45;0.50;;;;;;;;;;5075238;28;20090;-65
2021/11/04 06:05:28;;;;;;;0.60;0.60;;;;;;;;;;5071941;28;20055;-65
2021/11/04 06:07:57;;;;;;;0.45;0.40;;;;;;;;;;5066308;28;20044;-64
2021/11/04 06:10:26;;;;;;;0.40;0.40;;;;;;;;;;5065764;28;20563;-64
2021/11/04 06:12:54;;;;;;;1.17;0.40;;;;;;;;;;5063410;28;20053;-66
2021/11/04 06:15:23;;;;;;;0.63;0.40;;;;;;;;;;5065775;28;20500;-65
2021/11/04 06:17:51;;;;;;;0.30;0.30;;;;;;;;;;5068272;28;20613;-64
2021/11/04 06:20:19;;;;;;;0.90;0.45;;;;;;;;;;5064378;28;20048;-65
2021/11/04 06:22:47;;;;;;;1.35;0.40;;;;;;;;;;5066414;28;20163;-66
2021/11/04 06:25:16;;;;;;;2.25;0.60;;;;;;;;;;5066874;28;20087;-65
2021/11/04 06:27:45;;;;;;;1.90;0.63;;;;;;;;;;5058631;28;20503;-64
2021/11/04 06:30:13;;;;;;;0.80;0.52;;;;;;;;;;5068139;28;20051;-65
2021/11/04 06:32:42;;;;;;;1.95;0.80;;;;;;;;;;5057597;28;20131;-65
2021/11/04 06:35:11;;;;;;;0.55;0.50;;;;;;;;;;5082400;28;20052;-65
2021/11/04 06:37:39;;;;;;;2.97;0.98;;;;;;;;;;5059403;28;20551;-65
2021/11/04 06:40:09;;;;;;;0.93;0.70;;;;;;;;;;5073753;28;20131;-66
2021/11/04 06:42:38;;;;;;;1.05;0.80;;;;;;;;;;5073145;28;20124;-65
2021/11/04 06:45:08;;;;;;;2.92;0.68;;;;;;;;;;5086179;28;20068;-66
2021/11/04 06:47:39;;;;;;;1.23;0.70;;;;;;;;;;5070982;28;20092;-65
2021/11/04 06:50:07;;;;;;;1.75;0.85;;;;;;;;;;5071591;28;20088;-66
2021/11/04 06:52:37;;;;;;;1.40;0.90;;;;;;;;;;5068155;28;20065;-65
2021/11/04 06:55:06;;;;;;;2.03;0.90;;;;;;;;;;5069119;28;20124;-64
2021/11/04 06:57:35;;;;;;;1.30;0.82;;;;;;;;;;5071062;28;20123;-65
2021/11/04 07:00:06;;;;;;;1.55;0.85;;;;;;;;;;5061372;28;20055;-65
2021/11/04 07:02:40;;;;;;;1.30;0.95;;;;;;;;;;5055173;28;20049;-65
2021/11/04 07:05:12;;;;;;;1.40;0.95;;;;;;;;;;5070805;28;20087;-66
2021/11/04 07:07:46;;;;;;;1.48;1.00;;;;;;;;;;5072758;28;20088;-65
2021/11/04 07:10:15;;;;;;;0.93;0.63;;;;;;;;;;5061866;28;20041;-65
2021/11/04 07:12:45;;;;;;;1.77;0.98;;;;;;;;;;5060351;28;20042;-65
2021/11/04 07:15:13;;;;;;;1.95;1.10;;;;;;;;;;5059566;28;20140;-64
2021/11/04 07:17:43;;;;;;;1.00;0.90;;;;;;;;;;5058948;28;20128;-64
2021/11/04 07:20:12;;;;;;;1.85;0.98;;;;;;;;;;5059703;28;20127;-65
2021/11/04 07:22:41;;;;;;;1.10;0.73;;;;;;;;;;5059767;28;20459;-64
2021/11/04 07:25:11;;;;;;;1.00;0.77;;;;;;;;;;5061576;28;20048;-64
2021/11/04 07:27:47;;;;;;;1.00;0.90;;;;;;;;;;5078279;28;20128;-65
2021/11/04 07:30:18;;;;;;;2.25;0.98;;;;;;;;;;5061269;28;20131;-64
2021/11/04 07:32:49;;;;;;;1.25;0.70;;;;;;;;;;5061688;28;20167;-65
2021/11/04 07:35:18;;;;;;;0.95;0.77;;;;;;;;;;5062045;28;20098;-64
2021/11/04 07:37:46;;;;;;;1.10;1.00;;;;;;;;;;5080156;28;20571;-65
2021/11/04 07:40:15;;;;;;;1.50;0.93;;;;;;;;;;5066909;28;20045;-64
2021/11/04 07:42:45;;;;;;;2.38;1.30;;;;;;;;;;5074072;28;20056;-64
2021/11/04 07:45:14;;;;;;;2.15;1.10;;;;;;;;;;5063794;28;20633;-64
2021/11/04 07:47:42;;;;;;;1.50;0.90;;;;;;;;;;5063206;28;20135;-64
2021/11/04 07:50:15;;;;;;;1.27;0.90;;;;;;;;;;5062755;28;20490;-66
2021/11/04 07:52:44;;;;;;;2.05;1.02;;;;;;;;;;5064398;28;20057;-66
2021/11/04 07:55:12;;;;;;;2.05;1.10;;;;;;;;;;5060361;28;20151;-66
2021/11/04 07:57:41;;;;;;;1.90;1.02;;;;;;;;;;5065653;28;20455;-66
2021/11/04 08:00:10;;;;;;;1.42;0.93;;;;;;;;;;5063081;28;20052;-66
2021/11/04 08:02:40;;;;;;;1.23;0.98;;;;;;;;;;5060849;28;20134;-67
2021/11/04 08:05:10;;;;;;;0.60;0.60;;;;;;;;;;5067280;28;20127;-66
2021/11/04 08:07:40;;;;;;;1.90;1.02;;;;;;;;;;5060775;28;20049;-66
2021/11/04 08:10:09;;;;;;;1.15;1.05;;;;;;;;;;5066936;28;20048;-66
2021/11/04 08:12:38;;;;;;;3.25;1.40;;;;;;;;;;5065825;28;20044;-67
2021/11/04 08:15:07;;;;;;;3.58;1.58;;;;;;;;;;5066740;28;20127;-66
2021/11/04 08:17:37;;;;;;;3.13;1.55;;;;;;;;;;5059604;28;20508;-66
2021/11/04 08:20:06;;;;;;;2.47;1.00;;;;;;;;;;5064553;28;20139;-67
2021/11/04 08:22:34;;;;;;;1.55;0.75;;;;;;;;;;5059800;28;20083;-66
2021/11/04 08:25:05;;;;;;;0.70;0.57;;;;;;;;;;5061719;28;20079;-66
2021/11/04 08:27:34;;;;;;;2.90;0.68;;;;;;;;;;5058945;28;20052;-66
2021/11/04 08:30:03;;;;;;;3.53;1.00;;;;;;;;;;5064971;28;20078;-66
2021/11/04 08:32:31;;;;;;;0.90;0.60;;;;;;;;;;5061717;28;20045;-66
2021/11/04 08:35:00;;;;;;;0.60;0.60;;;;;;;;;;5057935;28;20053;-66
2021/11/04 08:37:29;;;;;;;3.08;0.80;;;;;;;;;;5075286;28;20056;-66
2021/11/04 08:39:57;;;;;;;1.42;0.85;;;;;;;;;;5069416;28;20079;-66
2021/11/04 08:42:28;;;;;;;2.25;0.82;;;;;;;;;;5070457;28;20112;-66
2021/11/04 08:44:56;;;;;;;1.48;0.77;;;;;;;;;;5065301;28;20185;-67
2021/11/04 08:47:25;;;;;;;2.88;1.05;;;;;;;;;;5066212;28;20044;-66
2021/11/04 08:50:01;;;;;;;1.23;0.80;;;;;;;;;;5055149;28;20056;-66
2021/11/04 08:52:36;;;;;;;0.65;0.50;;;;;;;;;;5048725;28;20164;-66
2021/11/04 08:55:11;;;;;;;;;;;;;;;;;;5062589;28;20053;-66
2021/11/04 08:57:41;;;;;;;0.45;0.40;;;;;;;;;;5072295;28;19963;-66
2021/11/04 09:00:12;;;;;;;0.68;0.40;;;;;;;;;;5056024;28;20455;-67
2021/11/04 09:02:42;;;;;;;1.20;0.50;;;;;;;;;;5056250;28;20048;-66
2021/11/04 09:05:11;;;;;;;1.00;0.50;;;;;;;;;;5072306;28;20078;-67
2021/11/04 09:07:40;;;;;;;0.50;0.47;;;;;;;;;;5070001;28;20099;-67
2021/11/04 09:10:11;;;;;;;0.52;0.40;;;;;;;;;;5075848;28;20048;-67
2021/11/04 09:12:41;;;;;;;0.50;0.40;;;;;;;;;;5062448;28;20049;-67
2021/11/04 09:15:11;;;;;;;0.60;0.50;;;;;;;;;;5070974;28;20051;-67
2021/11/04 09:17:40;;;;;;;1.40;0.57;;;;;;;;;;5075583;28;20049;-67
2021/11/04 09:20:11;;;;;;;1.00;0.60;;;;;;;;;;5080514;28;20135;-68
2021/11/04 09:22:45;;;;;;;0.82;0.60;;;;;;;;;;5078573;28;20058;-67
2021/11/04 09:25:14;;;;;;;0.75;0.47;;;;;;;;;;5080060;28;20507;-67
2021/11/04 09:27:44;;;;;;;0.75;0.52;;;;;;;;;;5078538;28;20137;-67
2021/11/04 09:30:13;;;;;;;0.68;0.50;;;;;;;;;;5082511;28;20258;-67
2021/11/04 09:32:42;;;;;;;0.88;0.73;;;;;;;;;;5056959;28;20083;-67
2021/11/04 09:35:12;;;;;;;1.40;0.65;;;;;;;;;;5071724;28;20041;-67
2021/11/04 09:37:41;;;;;;;1.17;0.63;;;;;;;;;;5074600;28;20049;-67
2021/11/04 09:40:10;;;;;;;0.80;0.70;;;;;;;;;;5068533;28;20072;-67
2021/11/04 09:42:39;;;;;;;1.42;0.75;;;;;;;;;;5074663;28;20055;-66
2021/11/04 09:45:09;;;;;;;0.70;0.55;;;;;;;;;;5066444;28;20412;-67
2021/11/04 09:47:37;;;;;;;1.17;0.47;;;;;;;;;;5073955;28;20058;-67
2021/11/04 09:50:08;;;;;;;1.20;0.60;;;;;;;;;;5063346;28;20046;-67
2021/11/04 09:52:38;;;;;;;1.30;0.80;;;;;;;;;;5067740;28;20386;-67
2021/11/04 09:55:08;;;;;;;0.93;0.73;;;;;;;;;;5069150;28;20578;-66
2021/11/04 09:57:37;;;;;;;1.15;0.95;;;;;;;;;;5074775;28;20059;-66
2021/11/04 10:00:06;;;;;;;1.92;0.80;;;;;;;;;;5070430;28;20044;-66
2021/11/04 10:02:35;;;;;;;1.27;0.80;;;;;;;;;;5068534;28;20100;-67
2021/11/04 10:05:06;;;;;;;1.25;0.93;;;;;;;;;;5060848;28;20530;-66
2021/11/04 10:07:41;;;;;;;2.05;1.00;;;;;;;;;;5069643;28;20036;-66
2021/11/04 10:10:10;;;;;;;0.82;0.60;;;;;;;;;;5056903;28;20447;-67
2021/11/04 10:12:55;;;;;;;1.23;1.08;;;;;;;;;;5058375;28;20460;-66
2021/11/04 10:15:24;;;;;;;0.93;0.63;;;;;;;;;;5070872;28;20051;-67
2021/11/04 10:17:54;;;;;;;1.02;0.80;;;;;;;;;;5064389;28;20083;-66
2021/11/04 10:20:24;;;;;;;0.70;0.68;;;;;;;;;;5072451;28;20045;-66
2021/11/04 10:23:01;;;;;;;1.45;0.73;;;;;;;;;;5070802;28;20056;-66
2021/11/04 10:25:30;;;;;;;1.20;0.77;;;;;;;;;;5066652;28;20083;-67
2021/11/04 10:27:58;;;;;;;1.35;0.90;;;;;;;;;;5073304;28;20080;-67
2021/11/04 10:30:38;;;;;;;1.55;0.80;;;;;;;;;;5077825;28;20458;-67
2021/11/04 10:33:24;;;;;;;0.88;0.88;;;;;;;;;;5066263;28;20091;-67
2021/11/04 10:35:53;;;;;;;1.08;0.77;;;;;;;;;;5049627;28;20136;-67
2021/11/04 10:38:22;;;;;;;2.60;1.00;;;;;;;;;;5050596;28;20076;-67
2021/11/04 10:40:53;;;;;;;1.75;1.02;;;;;;;;;;5050424;28;20106;-67
2021/11/04 10:43:22;;;;;;;3.08;0.90;;;;;;;;;;5049950;28;20052;-66
2021/11/04 10:45:58;;;;;;;1.90;0.90;;;;;;;;;;5047866;28;20037;-67
2021/11/04 10:48:28;;;;;;;1.40;1.10;;;;;;;;;;5047959;28;20049;-66
2021/11/04 10:50:57;;;;;;;1.50;1.25;;;;;;;;;;5047536;28;20061;-67
2021/11/04 10:53:26;;;;;;;1.98;0.95;;;;;;;;;;5050676;28;20049;-67
2021/11/04 10:55:55;;;;;;;2.25;1.20;;;;;;;;;;5043664;28;20069;-67
2021/11/04 10:58:27;;;;;;;2.13;1.58;;;;;;;;;;5059047;28;20049;-67
2021/11/04 11:00:56;;;;;;;2.97;1.27;;;;;;;;;;5053998;28;20485;-68
2021/11/04 11:03:24;;;;;;;1.70;1.10;;;;;;;;;;5052206;28;20045;-67
2021/11/04 11:05:57;;;;;;;1.90;0.90;;;;;;;;;;5069148;28;20136;-67
2021/11/04 11:08:26;;;;;;;2.20;1.27;;;;;;;;;;5059369;28;20117;-67
2021/11/04 11:10:55;;;;;;;1.70;1.02;;;;;;;;;;5070153;28;20452;-68
2021/11/04 11:13:25;;;;;;;1.35;0.88;;;;;;;;;;5055562;28;20044;-68
2021/11/04 11:15:55;;;;;;;1.65;0.90;;;;;;;;;;5057834;28;20072;-68
2021/11/04 11:18:25;;;;;;;1.15;0.82;;;;;;;;;;5066016;28;20170;-67
2021/11/04 11:20:54;;;;;;;3.40;0.90;;;;;;;;;;5064756;28;20131;-67
2021/11/04 11:23:25;;;;;;;2.13;1.10;;;;;;;;;;5052293;28;20523;-68
2021/11/04 11:25:54;;;;;;;1.20;0.90;;;;;;;;;;5070385;28;20040;-67
2021/11/04 11:28:22;;;;;;;1.55;0.98;;;;;;;;;;5054989;28;20080;-68
2021/11/04 11:31:13;;;;;;;1.63;0.85;;;;;;;;;;5064896;28;20079;-67
2021/11/04 11:33:42;;;;;;;0.80;0.70;;;;;;;;;;5051091;28;20085;-67
2021/11/04 11:36:13;;;;;;;3.30;0.88;;;;;;;;;;5087864;28;20364;-66
2021/11/04 11:39:04;;;;;;;1.67;0.95;;;;;;;;;;5074829;28;20476;-67
2021/11/04 11:41:33;;;;;;;0.88;0.80;;;;;;;;;;5059882;28;20695;-67
2021/11/04 11:44:05;;;;;;;1.92;0.77;;;;;;;;;;5087669;28;20078;-67
2021/11/04 11:46:33;;;;;;;1.17;0.90;;;;;;;;;;5072493;28;20060;-67
2021/11/04 11:49:18;;;;;;;1.35;0.60;;;;;;;;;;5068940;28;20450;-67
2021/11/04 11:51:54;;;;;;;1.00;0.73;;;;;;;;;;5069374;28;20048;-67
2021/11/04 11:54:23;;;;;;;1.38;0.90;;;;;;;;;;5065321;28;20136;-67
2021/11/04 11:57:06;;;;;;;1.02;0.80;;;;;;;;;;5088204;28;20073;-67
2021/11/04 11:59:48;;;;;;;1.77;0.70;;;;;;;;;;5075320;28;20131;-67
2021/11/04 12:02:35;;;;;;;0.95;0.65;;;;;;;;;;5063703;28;20044;-67
2021/11/04 12:05:25;;;;;;;0.85;0.65;;;;;;;;;;5063400;28;20059;-67
2021/11/04 12:07:55;;;;;;;1.20;0.80;;;;;;;;;;5070167;28;20052;-67
2021/11/04 12:10:37;;;;;;;1.88;0.50;;;;;;;;;;5071161;28;20139;-67
2021/11/04 12:13:05;;;;;;;0.90;0.70;;;;;;;;;;5069956;28;20048;-68
2021/11/04 12:15:55;;;;;;;1.20;0.68;;;;;;;;;;5084718;28;20333;-67
2021/11/04 12:18:23;;;;;;;1.60;1.05;;;;;;;;;;5070768;28;20511;-69
2021/11/04 12:20:52;;;;;;;1.25;0.88;;;;;;;;;;5071006;28;20080;-68
2021/11/04 12:23:34;;;;;;;1.02;0.93;;;;;;;;;;5076299;28;20114;-68
2021/11/04 12:26:03;;;;;;;1.08;0.88;;;;;;;;;;5078375;28;20056;-68
2021/11/04 12:28:42;;;;;;;1.48;1.13;;;;;;;;;;5087821;28;20106;-67
2021/11/04 12:31:14;;;;;;;1.45;0.95;;;;;;;;;;5088818;28;20056;-68
2021/11/04 12:33:43;;;;;;;3.28;1.00;;;;;;;;;;5090138;28;20052;-68
2021/11/04 12:36:11;;;;;;;1.45;0.85;;;;;;;;;;5079095;28;20426;-67
2021/11/04 12:38:43;;;;;;;2.28;1.00;;;;;;;;;;5071131;28;20056;-67
2021/11/04 12:41:14;;;;;;;3.08;1.10;;;;;;;;;;5072799;28;20052;-69
2021/11/04 12:43:42;;;;;;;2.70;1.17;;;;;;;;;;5055860;28;20044;-69
2021/11/04 12:46:14;;;;;;;1.17;0.95;;;;;;;;;;5060980;28;20041;-67
2021/11/04 12:48:46;;;;;;;1.65;1.17;;;;;;;;;;5095079;28;20514;-68
2021/11/04 12:51:15;;;;;;;3.90;1.30;;;;;;;;;;5077193;28;20098;-68
2021/11/04 12:53:52;;;;;;;2.03;1.20;;;;;;;;;;5074044;28;20458;-67
2021/11/04 12:56:41;;;;;;;1.33;1.08;;;;;;;;;;5068034;28;20109;-68
2021/11/04 12:59:10;;;;;;;3.03;1.10;;;;;;;;;;5070406;28;20045;-68
2021/11/04 13:01:58;;;;;;;1.67;1.42;;;;;;;;;;5078868;28;20051;-68
2021/11/04 13:04:27;;;;;;;4.90;1.48;;;;;;;;;;5092252;28;20089;-67
2021/11/04 13:06:56;;;;;;;2.15;1.33;;;;;;;;;;5094282;28;20097;-68
2021/11/04 13:09:26;;;;;;;3.55;1.42;;;;;;;;;;5084362;28;20131;-67
2021/11/04 13:12:08;;;;;;;2.38;1.67;;;;;;;;;;5074198;28;20085;-68
2021/11/04 13:14:55;;;;;;;1.38;1.17;;;;;;;;;;5074304;28;20052;-68
2021/11/04 13:17:25;;;;;;;2.72;1.27;;;;;;;;;;5093082;28;20441;-69
2021/11/04 13:19:57;;;;;;;1.35;1.10;;;;;;;;;;5089877;28;20052;-68
2021/11/04 13:22:26;;;;;;;2.08;1.50;;;;;;;;;;5083282;28;20159;-67
2021/11/04 13:24:56;;;;;;;1.60;1.20;;;;;;;;;;5079454;28;20075;-67
2021/11/04 13:27:26;;;;;;;3.47;1.20;;;;;;;;;;5094030;28;20056;-66
2021/11/04 13:29:55;;;;;;;2.83;1.30;;;;;;;;;;5078133;28;20138;-68
2021/11/04 13:32:50;;;;;;;3.17;1.40;;;;;;;;;;5074739;28;20478;-68
2021/11/04 13:35:27;;;;;;;2.97;1.60;;;;;;;;;;5077332;28;20053;-67
2021/11/04 13:38:07;;;;;;;2.10;1.40;;;;;;;;;;5073735;28;20052;-68
2021/11/04 13:40:44;;;;;;;3.08;1.67;;;;;;;;;;5081959;28;20398;-68
2021/11/04 13:43:12;;;;;;;1.65;1.20;;;;;;;;;;5084196;28;20102;-68
2021/11/04 13:45:42;;;;;;;2.30;1.38;;;;;;;;;;5075614;28;20040;-68
2021/11/04 13:48:11;;;;;;;2.08;1.30;;;;;;;;;;5057155;28;20045;-68
2021/11/04 13:50:41;;;;;;;1.85;1.17;;;;;;;;;;5079302;28;20522;-66
2021/11/04 13:53:13;;;;;;;3.60;1.80;;;;;;;;;;5081432;28;20407;-67
2021/11/04 13:55:42;;;;;;;2.83;1.63;;;;;;;;;;5078841;28;20072;-66
2021/11/04 13:58:13;;;;;;;5.40;1.48;;;;;;;;;;5071669;28;20047;-67
2021/11/04 14:00:41;;;;;;;3.03;1.95;;;;;;;;;;5082229;28;20064;-67
2021/11/04 14:03:13;;;;;;;1.52;1.20;;;;;;;;;;5064362;28;20123;-67
2021/11/04 14:05:56;;;;;;;2.75;1.73;;;;;;;;;;5063137;28;20064;-67
2021/11/04 14:08:38;;;;;;;2.38;1.70;;;;;;;;;;5063182;28;20080;-68
2021/11/04 14:11:16;;;;;;;2.40;1.65;;;;;;;;;;5060742;28;20120;-67
2021/11/04 14:13:59;;;;;;;5.25;1.63;;;;;;;;;;5071594;28;20155;-67
2021/11/04 14:16:29;;;;;;;3.50;2.35;;;;;;;;;;5074773;28;20058;-66
2021/11/04 14:18:59;;;;;;;2.25;1.40;;;;;;;;;;5072155;28;20079;-68
2021/11/04 14:21:29;;;;;;;4.63;1.88;;;;;;;;;;5071439;28;20097;-68
2021/11/04 14:23:58;;;;;;;2.55;1.58;;;;;;;;;;5069338;28;20084;-67
2021/11/04 14:26:27;;;;;;;1.95;1.25;;;;;;;;;;5056322;28;20056;-66
2021/11/04 14:28:56;;;;;;;2.40;1.50;;;;;;;;;;5067264;28;20508;-67
2021/11/04 14:31:26;;;;;;;3.10;1.63;;;;;;;;;;5070507;28;20052;-67
2021/11/04 14:33:55;;;;;;;2.08;1.30;;;;;;;;;;5064709;28;20480;-67
2021/11/04 14:36:24;;;;;;;2.53;1.60;;;;;;;;;;5067695;28;20059;-67
2021/11/04 14:38:53;;;;;;;1.95;1.45;;;;;;;;;;5066612;28;20037;-67
2021/11/04 14:41:22;;;;;;;2.08;1.42;;;;;;;;;;5080012;28;20056;-67
2021/11/04 14:43:51;;;;;;;3.65;1.70;;;;;;;;;;5071201;28;20409;-67
2021/11/04 14:46:41;;;;;;;3.85;1.90;;;;;;;;;;5063542;28;20044;-67
2021/11/04 14:49:09;;;;;;;3.00;1.95;;;;;;;;;;5076902;28;20173;-67
2021/11/04 14:51:38;;;;;;;3.50;1.60;;;;;;;;;;5073517;28;20049;-67
2021/11/04 14:54:07;;;;;;;3.35;1.60;;;;;;;;;;5072316;28;20205;-68
2021/11/04 14:56:36;;;;;;;2.80;1.60;;;;;;;;;;5058396;28;20072;-68
2021/11/04 14:59:09;;;;;;;2.70;1.80;;;;;;;;;;5061363;28;20063;-68
2021/11/04 15:01:38;;;;;;;3.40;1.75;;;;;;;;;;5065260;28;20037;-68